Roxbury Crossing, Massachusetts
Current Conditions -  °F | °C
As of 8:54 PM on Friday 28 Nov 2014 (Local Time) from KBOS Reporting Station
Few Clouds Few Clouds  
Wind Chill: 20°   Ceiling: Unl
Heat Index: 29°   Visibility: 10mi
Dew Point: 19°   Wind: 9mph
Humidity: 67%   Direction: 290°WNW
Pressure: 30.19"   Gusts: NA
Location:  42.3325°N, 71.0965°W
Report Text: KBOS 290154Z 29008KT 10SM FEW050 M02/M07 A3019 RMK AO2 SLP222 T10171072
Loading
Personal Weather Stations






























Interactive Weather Map New forecast layout! Learn more

10-Day Weather Forecast

Advertisements
Track Severe Weather on mobile